Waxahachie, Texas
Current Conditions -  °F | °C
As of 7:55 AM on Saturday 25 Oct 2014 (Local Time) from KJWY Reporting Station
Clear Clear  
Wind Chill: 59°   Ceiling: Unl
Heat Index: 59°   Visibility: 7mi
Dew Point: 58°   Wind: 6mph
Humidity: 97%   Direction: 150°SSE
Pressure: 30.15"   Gusts: NA
Location:  32.39°N, 96.85°W
Report Text: KJWY 251255Z AUTO 15005KT 7SM CLR 15/15 A3015 RMK AO2 T01500145
Loading
Personal Weather Stations






























Interactive Weather Map
Tropical Storm Tracking
New forecast layout! Learn more

10-Day Weather Forecast

Advertisements
Track Severe Weather on mobile